createdAt,value
2023-10-24T00:00:26.264Z,93815.59
2023-10-24T00:02:53.353Z,93827.75
2023-10-24T00:05:20.313Z,93816.34
2023-10-24T00:07:47.968Z,93829.13
2023-10-24T00:10:15.219Z,93805.38
2023-10-24T00:12:42.540Z,93814.72
2023-10-24T00:15:10.010Z,93830.84
2023-10-24T00:17:37.067Z,93837.13
2023-10-24T00:20:05.146Z,93836.47
2023-10-24T00:22:32.268Z,93827.59
2023-10-24T00:24:59.282Z,93837.81
2023-10-24T00:27:26.255Z,93846.34
2023-10-24T00:29:53.810Z,93841.72
2023-10-24T00:32:21.206Z,93829.78
2023-10-24T00:34:48.327Z,93819.00
2023-10-24T00:37:15.449Z,93817.81
2023-10-24T00:39:42.990Z,93800.81
2023-10-24T00:42:09.949Z,93802.81
2023-10-24T00:44:36.925Z,93796.94
2023-10-24T00:47:04.332Z,93799.56
2023-10-24T00:49:32.355Z,93796.28
2023-10-24T00:52:00.286Z,93799.91
2023-10-24T00:54:29.432Z,93806.06
2023-10-24T00:56:57.368Z,93797.91
2023-10-24T00:59:25.620Z,93814.56
2023-10-24T01:01:53.827Z,93827.25
2023-10-24T01:04:23.603Z,93818.75
2023-10-24T01:06:50.654Z,93815.94
2023-10-24T01:09:17.657Z,93816.91
2023-10-24T01:11:44.789Z,93808.41
2023-10-24T01:14:11.903Z,93822.56
2023-10-24T01:16:46.097Z,93798.81
2023-10-24T01:19:14.220Z,93808.81
2023-10-24T01:21:48.862Z,93795.91
2023-10-24T01:24:18.349Z,93779.06
2023-10-24T01:26:46.004Z,93785.41
2023-10-24T01:29:13.145Z,93791.56
2023-10-24T01:31:40.760Z,93801.28
2023-10-24T01:34:07.951Z,93809.16
2023-10-24T01:36:34.941Z,93798.66
2023-10-24T01:39:02.026Z,93796.66
2023-10-24T01:41:29.012Z,93803.72
2023-10-24T01:43:57.043Z,93810.78
2023-10-24T01:46:24.221Z,93799.84
2023-10-24T01:48:51.341Z,93788.53
2023-10-24T01:51:19.061Z,93775.75
2023-10-24T01:53:47.266Z,93791.16
2023-10-24T01:56:14.767Z,93785.63
2023-10-24T01:58:41.997Z,93783.75
2023-10-24T02:01:09.371Z,93787.56
2023-10-24T02:03:36.465Z,93780.19
2023-10-24T02:06:04.345Z,93774.44
2023-10-24T02:08:32.086Z,93763.94
2023-10-24T02:10:59.051Z,93761.19
2023-10-24T02:13:26.060Z,93775.88
2023-10-24T02:15:55.216Z,93769.34
2023-10-24T02:18:22.320Z,93785.38
2023-10-24T02:20:50.835Z,93766.56
2023-10-24T02:23:17.955Z,93758.34
2023-10-24T02:25:45.020Z,93756.44
2023-10-24T02:28:13.108Z,93754.34
2023-10-24T02:30:40.205Z,93752.91
2023-10-24T02:33:08.834Z,93767.13
2023-10-24T02:35:41.167Z,93760.22
2023-10-24T02:38:18.505Z,93759.41
2023-10-24T02:40:54.298Z,93758.25
2023-10-24T02:43:21.366Z,93743.06
2023-10-24T02:45:48.353Z,93731.31
2023-10-24T02:48:15.329Z,93732.75
2023-10-24T02:50:45.148Z,93731.72
2023-10-24T02:53:12.104Z,93741.59
2023-10-24T02:55:39.388Z,93746.22
2023-10-24T02:58:06.358Z,93744.13
2023-10-24T03:00:33.648Z,93761.22
2023-10-24T03:03:02.310Z,93782.66
2023-10-24T03:05:30.100Z,93770.09
2023-10-24T03:07:57.076Z,93781.84
2023-10-24T03:10:25.350Z,93783.47
2023-10-24T03:12:52.392Z,93767.03
2023-10-24T03:15:19.650Z,93771.38
2023-10-24T03:17:46.817Z,93761.84
2023-10-24T03:20:14.101Z,93754.72
2023-10-24T03:22:41.447Z,93751.09
2023-10-24T03:25:09.061Z,93742.59
2023-10-24T03:27:36.057Z,93734.56
2023-10-24T03:30:04.049Z,93731.31
2023-10-24T03:32:32.323Z,93741.69
2023-10-24T03:35:01.955Z,93744.78
2023-10-24T03:37:29.094Z,93737.38
2023-10-24T03:39:56.447Z,93735.38
2023-10-24T03:42:23.937Z,93729.50
2023-10-24T03:44:50.924Z,93725.84
2023-10-24T03:47:18.091Z,93711.31
2023-10-24T03:49:45.169Z,93701.00
2023-10-24T03:52:12.128Z,93701.63
2023-10-24T03:54:39.217Z,93704.69
2023-10-24T03:57:06.361Z,93690.50
2023-10-24T03:59:33.306Z,93699.38
2023-10-24T04:02:00.297Z,93710.84
2023-10-24T04:04:27.458Z,93706.63
2023-10-24T04:06:54.469Z,93701.25
2023-10-24T04:09:35.399Z,93720.34
2023-10-24T04:12:06.080Z,93726.25
2023-10-24T04:14:33.029Z,93714.56
2023-10-24T04:17:00.081Z,93721.97
2023-10-24T04:19:27.169Z,93728.03
2023-10-24T04:21:54.382Z,93736.44
2023-10-24T04:24:21.487Z,93725.31
2023-10-24T04:26:48.466Z,93698.22
2023-10-24T04:29:15.548Z,93708.69
2023-10-24T04:31:42.729Z,93672.25
2023-10-24T04:34:09.754Z,93669.91
2023-10-24T04:36:36.798Z,93673.50
2023-10-24T04:39:04.100Z,93674.50
2023-10-24T04:41:31.445Z,93679.13
2023-10-24T04:43:58.468Z,93670.97
2023-10-24T04:46:25.729Z,93678.84
2023-10-24T04:48:52.803Z,93683.28
2023-10-24T04:51:19.808Z,93690.59
2023-10-24T04:53:46.775Z,93685.91
2023-10-24T04:56:13.763Z,93697.47
2023-10-24T04:58:40.861Z,93694.03
2023-10-24T05:01:08.118Z,93668.00
2023-10-24T05:03:36.706Z,93689.25
2023-10-24T05:06:04.222Z,93680.09
2023-10-24T05:08:31.185Z,93685.19
2023-10-24T05:10:58.535Z,93670.00
2023-10-24T05:13:25.784Z,93658.50
2023-10-24T05:15:52.813Z,93651.63
2023-10-24T05:18:19.872Z,93652.91
2023-10-24T05:20:47.848Z,93632.66
2023-10-24T05:23:14.820Z,93629.03
2023-10-24T05:25:44.946Z,93638.53
2023-10-24T05:28:11.987Z,93652.00
2023-10-24T05:30:40.509Z,93649.25
2023-10-24T05:33:07.521Z,93644.41
2023-10-24T05:35:35.057Z,93622.78
2023-10-24T05:38:02.111Z,93622.16
2023-10-24T05:40:29.154Z,93635.06
2023-10-24T05:42:56.772Z,93628.03
2023-10-24T05:45:25.287Z,93623.78
2023-10-24T05:47:52.495Z,93638.31
2023-10-24T05:50:20.399Z,93643.56
2023-10-24T05:52:48.332Z,93660.78
2023-10-24T05:55:15.433Z,93662.56
2023-10-24T05:57:42.585Z,93656.78
2023-10-24T06:00:10.993Z,93632.78
2023-10-24T06:02:38.013Z,93609.69
2023-10-24T06:05:05.582Z,93613.19
2023-10-24T06:07:32.613Z,93623.03
2023-10-24T06:09:59.589Z,93627.94
2023-10-24T06:12:30.006Z,93625.94
2023-10-24T06:14:56.983Z,93643.28
2023-10-24T06:17:24.747Z,93623.03
2023-10-24T06:19:53.127Z,93627.94
2023-10-24T06:22:20.248Z,93629.53
2023-10-24T06:24:47.231Z,93621.03
2023-10-24T06:27:15.389Z,93630.78
2023-10-24T06:29:42.529Z,93634.78
2023-10-24T06:32:09.819Z,93629.53
2023-10-24T06:34:36.968Z,93629.72
2023-10-24T06:37:05.003Z,93634.44
2023-10-24T06:39:34.436Z,93632.06
2023-10-24T06:42:01.647Z,93619.03
2023-10-24T06:44:29.622Z,93619.56
2023-10-24T06:46:57.442Z,93615.38
2023-10-24T06:49:24.771Z,93607.06
2023-10-24T06:51:51.806Z,93608.53
2023-10-24T06:54:18.840Z,93611.97
2023-10-24T06:56:45.913Z,93612.47
2023-10-24T06:59:12.899Z,93614.47
2023-10-24T07:01:40.353Z,93612.47
2023-10-24T07:04:07.759Z,93616.63
2023-10-24T07:06:34.769Z,93610.34
2023-10-24T07:09:01.789Z,93612.22
2023-10-24T07:11:29.175Z,93622.38
2023-10-24T07:13:56.247Z,93604.75
2023-10-24T07:16:23.340Z,93592.69
2023-10-24T07:18:50.377Z,93587.22
2023-10-24T07:21:18.391Z,93581.00
2023-10-24T07:23:45.430Z,93572.31
2023-10-24T07:26:12.430Z,93586.13
2023-10-24T07:28:39.493Z,93590.59
2023-10-24T07:31:06.486Z,93596.25
2023-10-24T07:33:33.554Z,93604.34
2023-10-24T07:36:08.070Z,93611.47
2023-10-24T07:38:35.384Z,93612.53
2023-10-24T07:41:02.934Z,93619.44
2023-10-24T07:43:29.989Z,93618.06
2023-10-24T07:45:57.050Z,93614.59
2023-10-24T07:48:25.722Z,93622.97
2023-10-24T07:50:57.806Z,93610.25
2023-10-24T07:53:26.799Z,93613.72
2023-10-24T07:55:54.630Z,93605.25
2023-10-24T07:58:22.216Z,93603.88
2023-10-24T08:00:49.881Z,93599.00
2023-10-24T08:03:17.805Z,93606.31
2023-10-24T08:05:45.406Z,93603.06
2023-10-24T08:08:12.507Z,93613.81
2023-10-24T08:10:40.019Z,93618.28
2023-10-24T08:13:07.024Z,93616.69
2023-10-24T08:15:34.218Z,93612.63
2023-10-24T08:18:01.416Z,93628.69
2023-10-24T08:20:28.500Z,93605.16
2023-10-24T08:22:56.261Z,93622.66
2023-10-24T08:25:23.485Z,93622.66
2023-10-24T08:27:50.565Z,93623.84
2023-10-24T08:30:17.595Z,93633.78
2023-10-24T08:32:44.606Z,93630.31
2023-10-24T08:35:11.725Z,93624.09
2023-10-24T08:37:38.827Z,93634.03
2023-10-24T08:40:06.919Z,93630.03
2023-10-24T08:42:34.521Z,93623.16
2023-10-24T08:45:02.387Z,93625.38
2023-10-24T08:47:31.299Z,93617.09
2023-10-24T08:50:02.268Z,93625.16
2023-10-24T08:52:32.127Z,93636.53
2023-10-24T08:55:02.275Z,93634.91
2023-10-24T08:57:32.205Z,93631.06
2023-10-24T09:00:01.650Z,93637.75
2023-10-24T09:02:29.565Z,93619.13
2023-10-24T09:04:56.698Z,93631.47
2023-10-24T09:07:23.845Z,93644.66
2023-10-24T09:09:51.541Z,93636.94
2023-10-24T09:12:18.651Z,93642.22
2023-10-24T09:14:53.685Z,93652.34
2023-10-24T09:17:25.486Z,93655.59
2023-10-24T09:20:00.811Z,93658.41
2023-10-24T09:22:33.317Z,93656.03
2023-10-24T09:25:03.166Z,93665.16
2023-10-24T09:27:30.215Z,93654.81
2023-10-24T09:29:57.228Z,93647.13
2023-10-24T09:32:24.315Z,93645.13
2023-10-24T09:34:51.462Z,93649.16
2023-10-24T09:37:18.505Z,93656.50
2023-10-24T09:40:02.599Z,93656.50
2023-10-24T09:42:35.125Z,93647.38
2023-10-24T09:45:07.510Z,93652.47
2023-10-24T09:47:35.320Z,93635.06
2023-10-24T09:50:03.710Z,93635.91
2023-10-24T09:52:31.471Z,93636.75
2023-10-24T09:55:00.230Z,93630.31
2023-10-24T09:57:28.971Z,93603.94
2023-10-24T10:00:00.437Z,93621.00
2023-10-24T10:02:28.906Z,93617.56
2023-10-24T10:04:56.795Z,93615.75
2023-10-24T10:07:27.360Z,93609.09
2023-10-24T10:09:55.669Z,93610.53
2023-10-24T10:12:23.270Z,93604.44
2023-10-24T10:15:27.192Z,93600.03
2023-10-24T10:18:22.639Z,93606.53
2023-10-24T10:21:35.474Z,93603.09
2023-10-24T10:24:31.161Z,93597.66
2023-10-24T10:27:31.648Z,93590.78
2023-10-24T10:30:23.755Z,93586.72
2023-10-24T10:33:16.360Z,93582.66
2023-10-24T10:36:03.514Z,93581.88
2023-10-24T10:38:41.854Z,93573.38
2023-10-24T10:41:28.357Z,93573.81
2023-10-24T10:44:01.209Z,93567.13
2023-10-24T10:46:33.090Z,93561.03
2023-10-24T10:49:02.005Z,93553.13
2023-10-24T10:51:34.713Z,93545.44
2023-10-24T10:54:46.490Z,93547.47
2023-10-24T10:57:23.815Z,93560.25
2023-10-24T10:59:59.724Z,93551.72
2023-10-24T11:03:03.938Z,93549.91
2023-10-24T11:05:36.846Z,93552.13
2023-10-24T11:08:05.415Z,93542.63
2023-10-24T11:10:55.144Z,93548.28
2023-10-24T11:13:45.213Z,93537.34
2023-10-24T11:16:29.962Z,93536.97
2023-10-24T11:18:57.843Z,93535.94
2023-10-24T11:21:25.141Z,93532.91
2023-10-24T11:23:52.388Z,93529.84
2023-10-24T11:26:19.451Z,93532.69
2023-10-24T11:28:46.598Z,93532.06
2023-10-24T11:31:24.841Z,93539.34
2023-10-24T11:33:52.167Z,93531.03
2023-10-24T11:36:19.659Z,93524.78
2023-10-24T11:38:46.768Z,93507.94
2023-10-24T11:41:13.761Z,93501.44
2023-10-24T11:43:40.758Z,93507.72
2023-10-24T11:46:07.841Z,93511.78
2023-10-24T11:48:34.998Z,93526.78
2023-10-24T11:51:04.917Z,93516.59
2023-10-24T11:53:32.262Z,93521.88
2023-10-24T11:55:59.875Z,93527.31
2023-10-24T11:58:34.706Z,93527.13
2023-10-24T12:01:03.443Z,93521.44
2023-10-24T12:03:49.820Z,93519.38
2023-10-24T12:06:19.618Z,93522.63
2023-10-24T12:08:48.780Z,93514.50
2023-10-24T12:11:15.945Z,93514.31
2023-10-24T12:13:43.027Z,93504.34
2023-10-24T12:16:10.432Z,93516.66
2023-10-24T12:18:40.076Z,93515.25
2023-10-24T12:21:09.342Z,93503.47
2023-10-24T12:23:39.706Z,93518.84
2023-10-24T12:26:06.982Z,93505.25
2023-10-24T12:28:35.067Z,93507.47
2023-10-24T12:31:02.090Z,93496.06
2023-10-24T12:33:29.789Z,93497.22
2023-10-24T12:36:01.287Z,93488.47
2023-10-24T12:38:32.617Z,93481.16
2023-10-24T12:40:59.664Z,93483.78
2023-10-24T12:43:26.936Z,93495.47
2023-10-24T12:45:54.066Z,93507.63
2023-10-24T12:48:21.222Z,93490.19
2023-10-24T12:50:48.659Z,93486.91
2023-10-24T12:53:16.013Z,93492.50
2023-10-24T12:55:43.219Z,93494.88
2023-10-24T12:58:10.260Z,93486.94
2023-10-24T13:00:37.416Z,93473.34
2023-10-24T13:03:15.128Z,93464.94
2023-10-24T13:05:48.002Z,93476.09
2023-10-24T13:08:15.906Z,93474.66
2023-10-24T13:10:43.229Z,93484.22
2023-10-24T13:13:10.655Z,93478.34
2023-10-24T13:15:37.749Z,93471.41
2023-10-24T13:18:04.939Z,93474.81
2023-10-24T13:20:32.068Z,93474.38
2023-10-24T13:22:59.107Z,93465.28
2023-10-24T13:25:26.105Z,93479.31
2023-10-24T13:27:53.054Z,93473.78
2023-10-24T13:30:33.494Z,93472.47
2023-10-24T13:33:06.934Z,93482.59
2023-10-24T13:38:03.821Z,93483.41
2023-10-24T13:40:30.849Z,93487.44
2023-10-24T13:42:57.950Z,93479.34
2023-10-24T13:45:27.767Z,93481.41
2023-10-24T13:47:55.973Z,93477.75
2023-10-24T13:50:22.959Z,93475.13
2023-10-24T13:52:50.060Z,93488.53
2023-10-24T13:55:18.969Z,93485.13
2023-10-24T13:57:48.150Z,93496.13
2023-10-24T14:00:15.735Z,93494.16
2023-10-24T14:02:42.872Z,93487.66
2023-10-24T14:05:10.591Z,93498.84
2023-10-24T14:07:37.630Z,93495.41
2023-10-24T14:10:05.130Z,93501.28
2023-10-24T14:12:32.105Z,93491.59
2023-10-24T14:14:59.081Z,93510.81
2023-10-24T14:17:26.036Z,93508.84
2023-10-24T14:19:53.027Z,93503.19
2023-10-24T14:22:20.074Z,93500.75
2023-10-24T14:24:47.145Z,93506.84
2023-10-24T14:27:14.522Z,93500.00
2023-10-24T14:29:45.327Z,93514.16
2023-10-24T14:32:12.398Z,93499.63
2023-10-24T14:34:39.454Z,93517.84
2023-10-24T14:37:06.488Z,93495.38
2023-10-24T14:39:33.545Z,93508.97
2023-10-24T14:42:01.371Z,93509.78
2023-10-24T14:44:29.251Z,93502.13
2023-10-24T14:46:56.319Z,93498.50
2023-10-24T14:49:23.650Z,93513.69
2023-10-24T14:51:50.799Z,93515.13
2023-10-24T14:54:17.762Z,93521.66
2023-10-24T14:56:44.733Z,93503.03
2023-10-24T14:59:11.813Z,93511.94
2023-10-24T15:01:38.834Z,93503.47
2023-10-24T15:04:06.059Z,93508.31
2023-10-24T15:06:35.192Z,93515.63
2023-10-24T15:09:05.775Z,93521.50
2023-10-24T15:11:32.832Z,93515.66
2023-10-24T15:14:00.323Z,93513.03
2023-10-24T15:16:27.414Z,93510.78
2023-10-24T15:18:54.771Z,93511.59
2023-10-24T15:21:21.759Z,93512.03
2023-10-24T15:23:48.866Z,93499.06
2023-10-24T15:26:16.241Z,93510.22
2023-10-24T15:28:43.260Z,93510.44
2023-10-24T15:31:10.349Z,93518.16
2023-10-24T15:33:37.327Z,93499.91
2023-10-24T15:36:04.696Z,93513.69
2023-10-24T15:38:31.695Z,93504.78
2023-10-24T15:40:58.703Z,93512.72
2023-10-24T15:43:25.837Z,93512.50
2023-10-24T15:46:08.066Z,93509.66
2023-10-24T15:48:36.770Z,93491.44
2023-10-24T15:51:05.716Z,93499.97
2023-10-24T15:53:33.465Z,93500.34
2023-10-24T15:56:01.331Z,93485.78
2023-10-24T15:58:32.368Z,93489.81
2023-10-24T16:00:59.924Z,93487.00
2023-10-24T16:03:27.039Z,93489.84
2023-10-24T16:05:54.186Z,93497.94
2023-10-24T16:08:21.328Z,93491.47
2023-10-24T16:10:48.715Z,93487.00
2023-10-24T16:13:15.761Z,93486.19
2023-10-24T16:15:43.021Z,93467.56
2023-10-24T16:18:10.541Z,93477.09
2023-10-24T16:20:37.612Z,93492.06
2023-10-24T16:23:04.893Z,93487.00
2023-10-24T16:25:33.103Z,93485.00
2023-10-24T16:28:00.201Z,93475.88
2023-10-24T16:30:27.786Z,93471.44
2023-10-24T16:32:55.424Z,93487.47
2023-10-24T16:35:22.619Z,93490.09
2023-10-24T16:37:49.696Z,93485.03
2023-10-24T16:40:16.834Z,93489.28
2023-10-24T16:42:43.820Z,93480.19
2023-10-24T16:45:10.971Z,93477.78
2023-10-24T16:47:37.977Z,93484.66
2023-10-24T16:50:06.334Z,93484.66
2023-10-24T16:52:33.384Z,93486.69
2023-10-24T16:55:00.334Z,93486.25
2023-10-24T16:57:27.385Z,93484.66
2023-10-24T16:59:54.414Z,93496.41
2023-10-24T17:02:22.735Z,93493.19
2023-10-24T17:04:50.058Z,93500.06
2023-10-24T17:07:17.073Z,93505.13
2023-10-24T17:09:44.205Z,93499.03
2023-10-24T17:12:11.336Z,93500.88
2023-10-24T17:14:38.866Z,93501.06
2023-10-24T17:17:06.254Z,93499.47
2023-10-24T17:19:36.110Z,93502.91
2023-10-24T17:22:03.121Z,93504.50
2023-10-24T17:24:30.693Z,93491.16
2023-10-24T17:26:57.717Z,93506.34
2023-10-24T17:29:25.834Z,93501.88
2023-10-24T17:31:52.963Z,93511.41
2023-10-24T17:34:20.035Z,93515.06
2023-10-24T17:36:47.017Z,93512.25
2023-10-24T17:39:14.027Z,93534.72
2023-10-24T17:41:41.017Z,93522.75
2023-10-24T17:44:08.018Z,93528.22
2023-10-24T17:46:35.262Z,93529.63
2023-10-24T17:49:02.284Z,93528.22
2023-10-24T17:51:29.290Z,93528.44
2023-10-24T17:53:56.508Z,93518.09
2023-10-24T17:56:23.531Z,93531.66
2023-10-24T17:58:50.661Z,93517.69
2023-10-24T18:01:18.078Z,93531.88
2023-10-24T18:03:45.114Z,93522.75
2023-10-24T18:06:12.190Z,93534.50
2023-10-24T18:08:41.658Z,93516.69
2023-10-24T18:11:09.399Z,93521.97
2023-10-24T18:13:36.599Z,93526.81
2023-10-24T18:16:03.938Z,93517.91
2023-10-24T18:18:33.679Z,93525.38
2023-10-24T18:21:01.025Z,93534.50
2023-10-24T18:23:28.056Z,93528.44
2023-10-24T18:25:56.077Z,93531.69
2023-10-24T18:28:23.218Z,93533.28
2023-10-24T18:30:50.241Z,93541.78
2023-10-24T18:33:17.204Z,93535.31
2023-10-24T18:35:44.525Z,93526.41
2023-10-24T18:38:11.571Z,93528.03
2023-10-24T18:40:38.604Z,93521.53
2023-10-24T18:43:05.802Z,93535.34
2023-10-24T18:45:35.683Z,93538.16
2023-10-24T18:48:02.771Z,93548.28
2023-10-24T18:50:29.977Z,93543.44
2023-10-24T18:52:58.765Z,93546.25
2023-10-24T18:55:26.510Z,93566.09
2023-10-24T18:57:53.760Z,93562.88
2023-10-24T19:00:21.540Z,93565.69
2023-10-24T19:05:21.429Z,93554.72
2023-10-24T19:07:48.428Z,93554.72
2023-10-24T19:10:16.490Z,93570.91
2023-10-24T19:12:43.934Z,93576.41
2023-10-24T19:15:12.461Z,93572.50
2023-10-24T19:17:39.997Z,93558.91
2023-10-24T19:20:08.570Z,93568.03
2023-10-24T19:22:35.955Z,93561.97
2023-10-24T19:25:04.805Z,93566.00
2023-10-24T19:27:32.305Z,93560.94
2023-10-24T19:29:59.689Z,93570.47
2023-10-24T19:32:32.851Z,93572.06
2023-10-24T19:35:00.546Z,93572.50
2023-10-24T19:37:30.489Z,93580.78
2023-10-24T19:39:57.955Z,93583.63
2023-10-24T19:42:26.849Z,93589.28
2023-10-24T19:44:54.177Z,93585.59
2023-10-24T19:47:24.882Z,93584.63
2023-10-24T19:49:53.749Z,93584.19
2023-10-24T19:52:23.500Z,93579.53
2023-10-24T19:54:52.129Z,93581.19
2023-10-24T19:57:19.361Z,93580.94
2023-10-24T19:59:46.766Z,93572.84
2023-10-24T20:02:14.266Z,93564.28
2023-10-24T20:04:48.325Z,93572.63
2023-10-24T20:07:20.696Z,93576.88
2023-10-24T20:11:04.102Z,93580.13
2023-10-24T20:12:42.260Z,93576.88
2023-10-24T20:15:12.665Z,93581.91
2023-10-24T20:17:44.133Z,93581.09
2023-10-24T20:20:13.683Z,93580.28
2023-10-24T20:22:41.650Z,93576.41
2023-10-24T20:25:09.717Z,93574.81
2023-10-24T20:27:39.689Z,93575.19
2023-10-24T20:30:08.811Z,93580.84
2023-10-24T20:32:37.563Z,93585.69
2023-10-24T20:35:06.843Z,93580.44
2023-10-24T20:37:33.934Z,93580.84
2023-10-24T20:40:01.012Z,93576.41
2023-10-24T20:42:28.103Z,93571.31
2023-10-24T20:44:56.677Z,93575.97
2023-10-24T20:47:23.915Z,93562.78
2023-10-24T20:49:51.005Z,93575.59
2023-10-24T20:52:18.388Z,93574.75
2023-10-24T20:54:45.801Z,93575.78
2023-10-24T20:57:14.610Z,93569.09
2023-10-24T20:59:42.053Z,93561.38
2023-10-24T21:02:09.292Z,93571.69
2023-10-24T21:04:38.193Z,93585.03
2023-10-24T21:07:06.293Z,93583.81
2023-10-24T21:09:33.560Z,93590.44
2023-10-24T21:12:01.341Z,93587.19
2023-10-24T21:14:28.413Z,93589.78
2023-10-24T21:16:55.490Z,93588.75
2023-10-24T21:19:22.845Z,93592.38
2023-10-24T21:21:50.281Z,93593.13
2023-10-24T21:24:17.267Z,93600.75
2023-10-24T21:26:45.538Z,93597.53
2023-10-24T21:29:12.656Z,93595.25
2023-10-24T21:31:40.635Z,93591.19
2023-10-24T21:34:08.875Z,93600.25
2023-10-24T21:36:35.990Z,93604.31
2023-10-24T21:39:05.058Z,93608.50
2023-10-24T21:41:32.302Z,93616.56
2023-10-24T21:43:59.345Z,93606.81
2023-10-24T21:46:26.438Z,93614.53
2023-10-24T21:48:53.599Z,93611.09
2023-10-24T21:51:21.785Z,93611.47
2023-10-24T21:53:51.327Z,93613.88
2023-10-24T21:56:20.269Z,93619.13
2023-10-24T21:58:47.984Z,93627.19
2023-10-24T22:01:19.526Z,93624.16
2023-10-24T22:03:47.420Z,93626.59
2023-10-24T22:06:15.132Z,93620.72
2023-10-24T22:08:42.144Z,93625.00
2023-10-24T22:11:09.154Z,93621.16
2023-10-24T22:13:36.244Z,93625.22
2023-10-24T22:16:03.558Z,93622.38
2023-10-24T22:18:30.776Z,93617.97
2023-10-24T22:20:58.151Z,93622.59
2023-10-24T22:23:25.262Z,93613.28
2023-10-24T22:25:55.794Z,93627.84
2023-10-24T22:28:22.894Z,93627.03
2023-10-24T22:30:49.964Z,93627.63
2023-10-24T22:33:17.113Z,93609.34
2023-10-24T22:35:44.157Z,93625.97
2023-10-24T22:38:11.226Z,93625.00
2023-10-24T22:40:38.304Z,93608.59
2023-10-24T22:43:05.357Z,93617.91
2023-10-24T22:45:32.538Z,93624.59
2023-10-24T22:47:59.779Z,93602.47
2023-10-24T22:50:26.998Z,93613.88
2023-10-24T22:52:54.097Z,93613.47
2023-10-24T22:55:21.220Z,93610.59
2023-10-24T22:57:48.439Z,93616.66
2023-10-24T23:00:16.167Z,93616.66
2023-10-24T23:02:45.950Z,93635.50
2023-10-24T23:05:13.863Z,93630.97
2023-10-24T23:07:40.852Z,93616.66
2023-10-24T23:10:09.272Z,93617.47
2023-10-24T23:12:37.000Z,93620.09
2023-10-24T23:15:04.925Z,93612.59
2023-10-24T23:17:32.448Z,93613.22
2023-10-24T23:19:59.761Z,93612.22
2023-10-24T23:22:26.846Z,93602.28
2023-10-24T23:24:55.333Z,93610.78
2023-10-24T23:27:23.108Z,93608.97
2023-10-24T23:29:50.376Z,93604.09
2023-10-24T23:32:17.623Z,93599.22
2023-10-24T23:34:44.626Z,93603.41
2023-10-24T23:37:11.718Z,93612.50
2023-10-24T23:39:38.858Z,93609.25
2023-10-24T23:42:06.098Z,93608.53
2023-10-24T23:44:33.108Z,93608.75
2023-10-24T23:47:00.454Z,93611.38
2023-10-24T23:49:27.574Z,93609.91
2023-10-24T23:51:54.616Z,93600.97
2023-10-24T23:54:21.615Z,93602.22
2023-10-24T23:56:48.612Z,93597.38
2023-10-24T23:59:15.569Z,93597.31
